Kezdőlap
METAR-TAF:

METAR-TAF

Repülőterek :

Resolute, Nunavut, Kanada

földrajzi szélesség: 74-43N, földrajzi hosszúság: 094-59W, magasság: 67 m

Jelenlegi meteorológiai megfigyelések

A jelentés 52 perccel ezelõtt készült, 14:00 UTC
Kelet-északkeleti szél 13 kt
Hőmérséklet 3°C
Páratartalom 75%
Légköri nyomás 1018 hPa
Látótávolság: 48.3 km
Kevés felhő 20000 lábon

METAR: CYRB 151400Z 06013KT 30SM FEW200 03/M01 A3005 RMK CI1 SLP184

Idő: 09:52 (14:52 UTC)

Előrejelzés

A jelentés 3 órával és 12 perccel ezelõtt készült, 11:40 UTC
Az előrejelzés 15-én 12 óra UTC és 16-én 12 óra UTC között érvényes
Kelet-északkeleti szél 12 kt
Látótávolság: 10 km
Szakadozott felhőzet 20000 lábon
15-én 20 óra UTC és 15-én 22 óra UTC között fokozatosan kialakuló
Északkeleti szél 15 kt széllökések: 25 kt

TAF: CYRB 151140Z 1512/1612 06012KT P6SM BKN200 BECMG 1520/1522 04015G25KT RMK NXT FCST BY 151800Z

Meteorológiai megfigyelések és előrejelzések több, mint 4000 repülőtéren (METAR és TAF jelentéseket).

A térképen piros és sárga pontok jelzik az elérhető meteorológiai állomásokat.

Mozgassa az egeret a pont fölött, hogy megjelenjen az állomás neve.

Azután kattintson az időjárási megfigyelések és előrejelzések megtekintéséhez.

A térkép megváltoztatása: kattintson a fekete keresztel jelölt zöld gombra ráközelítéshez, a vonallal jelölt zöld gombra távolításhoz, vagy a zöld nyilakra a szomszédos térképek eléréséhez.


METAR-TAF: